Time;durP1;ratioP1;P1;durP2;ratioP2;P2;SDS_P1;SDS_P2;PMS_P1;PMS_P2;Temp;Humidity;BMP_temperature;BMP_pressure;BME280_temperature;BME280_humidity;BME280_pressure;Samples;Min_cycle;Max_cycle;Signal;HPM_P1;HPM_P2
2022/03/04 00:01:59;;;;;;;26.15;17.02;;;4.60;99.90;;;;;;5038920;28;20436;-64
2022/03/04 00:04:26;;;;;;;23.05;15.38;;;4.60;99.90;;;;;;5035168;28;20041;-64
2022/03/04 00:06:53;;;;;;;24.42;15.40;;;4.40;99.90;;;;;;5027517;28;20049;-64
2022/03/04 00:09:20;;;;;;;28.17;15.75;;;4.60;99.90;;;;;;5038552;28;20041;-64
2022/03/04 00:11:47;;;;;;;22.23;14.00;;;4.50;99.90;;;;;;5039534;28;20045;-64
2022/03/04 00:14:13;;;;;;;20.92;13.85;;;4.40;99.90;;;;;;5045815;28;20037;-64
2022/03/04 00:16:39;;;;;;;24.00;15.25;;;4.40;99.90;;;;;;5034095;28;20064;-64
2022/03/04 00:19:08;;;;;;;21.45;13.35;;;4.40;99.90;;;;;;5035275;28;20557;-64
2022/03/04 00:21:35;;;;;;;20.90;14.50;;;4.30;99.90;;;;;;5031568;28;20056;-64
2022/03/04 00:24:01;;;;;;;31.20;15.52;;;4.30;99.90;;;;;;5034114;28;20049;-64
2022/03/04 00:26:27;;;;;;;23.42;14.73;;;4.30;99.90;;;;;;5037279;28;20567;-64
2022/03/04 00:28:53;;;;;;;25.05;15.15;;;4.30;99.90;;;;;;5039724;28;20045;-64
2022/03/04 00:31:18;;;;;;;25.58;15.80;;;4.20;99.90;;;;;;5036863;28;20041;-64
2022/03/04 00:33:44;;;;;;;23.02;14.07;;;4.20;99.90;;;;;;5045577;28;20041;-64
2022/03/04 00:36:09;;;;;;;25.85;14.30;;;4.10;99.90;;;;;;5032518;28;20045;-64
2022/03/04 00:38:35;;;;;;;24.08;14.57;;;4.10;99.90;;;;;;5049660;28;20044;-64
2022/03/04 00:41:00;;;;;;;23.05;13.52;;;4.20;99.90;;;;;;5039711;28;20052;-64
2022/03/04 00:43:26;;;;;;;20.90;13.52;;;4.10;99.90;;;;;;5033043;28;20057;-64
2022/03/04 00:45:52;;;;;;;20.38;13.88;;;4.10;99.90;;;;;;5036638;28;20048;-64
2022/03/04 00:48:17;;;;;;;24.40;15.10;;;4.00;99.90;;;;;;5046201;28;20044;-64
2022/03/04 00:50:43;;;;;;;24.95;14.00;;;3.90;99.90;;;;;;5041180;28;20068;-64
2022/03/04 00:53:08;;;;;;;20.58;13.95;;;3.90;99.90;;;;;;5039928;28;20063;-64
2022/03/04 00:55:38;;;;;;;20.45;13.38;;;3.90;99.90;;;;;;5035682;28;20033;-64
2022/03/04 00:58:07;;;;;;;18.90;11.32;;;3.90;99.90;;;;;;5037978;28;20064;-64
2022/03/04 01:00:34;;;;;;;19.23;13.07;;;3.90;99.90;;;;;;5033259;28;20076;-64
2022/03/04 01:03:01;;;;;;;21.52;12.70;;;3.90;99.90;;;;;;5043937;28;20507;-64
2022/03/04 01:05:26;;;;;;;21.95;13.50;;;3.80;99.90;;;;;;5040683;28;20088;-64
2022/03/04 01:07:52;;;;;;;21.98;13.20;;;3.80;99.90;;;;;;5033452;28;20142;-64
2022/03/04 01:10:17;;;;;;;18.80;11.73;;;3.80;99.90;;;;;;5030714;28;20053;-64
2022/03/04 01:12:43;;;;;;;20.98;12.73;;;3.70;99.90;;;;;;5040889;28;20045;-64
2022/03/04 01:15:09;;;;;;;19.48;11.15;;;3.70;99.90;;;;;;5030352;28;20049;-64
2022/03/04 01:17:35;;;;;;;19.35;12.07;;;3.70;99.90;;;;;;5037282;28;20041;-64
2022/03/04 01:20:02;;;;;;;18.88;11.13;;;3.70;99.90;;;;;;5038074;28;20053;-64
2022/03/04 01:22:27;;;;;;;20.95;13.60;;;3.70;99.90;;;;;;5036482;28;20072;-64
2022/03/04 01:24:53;;;;;;;16.85;12.48;;;3.60;99.90;;;;;;5035265;28;20111;-64
2022/03/04 01:27:19;;;;;;;19.60;11.57;;;3.60;99.90;;;;;;5038444;28;20103;-64
2022/03/04 01:29:45;;;;;;;22.40;12.75;;;3.60;99.90;;;;;;5035348;28;20498;-64
2022/03/04 01:32:11;;;;;;;18.23;11.40;;;3.50;99.90;;;;;;5037639;28;20519;-64
2022/03/04 01:34:37;;;;;;;19.75;11.55;;;3.60;99.90;;;;;;5042622;28;20069;-64
2022/03/04 01:37:03;;;;;;;20.38;12.07;;;3.50;99.90;;;;;;5035467;28;20132;-64
2022/03/04 01:39:29;;;;;;;20.40;11.98;;;3.50;99.90;;;;;;5035495;28;20562;-64
2022/03/04 01:41:55;;;;;;;20.70;12.10;;;3.40;99.90;;;;;;5035700;28;20137;-64
2022/03/04 01:44:21;;;;;;;19.92;11.88;;;3.50;99.90;;;;;;5027602;28;20072;-64
2022/03/04 01:46:46;;;;;;;16.10;10.93;;;3.40;99.90;;;;;;5035670;28;20106;-64
2022/03/04 01:49:13;;;;;;;19.83;11.25;;;3.40;99.90;;;;;;5031205;28;20096;-64
2022/03/04 01:51:38;;;;;;;20.88;12.50;;;3.40;99.90;;;;;;5040319;28;20099;-64
2022/03/04 01:54:04;;;;;;;17.50;11.27;;;3.30;99.90;;;;;;5033102;28;20038;-63
2022/03/04 01:56:30;;;;;;;16.30;10.77;;;3.30;99.90;;;;;;5040655;28;20436;-64
2022/03/04 01:58:55;;;;;;;19.98;11.10;;;3.30;99.90;;;;;;5030318;28;20452;-64
2022/03/04 02:01:21;;;;;;;20.60;11.13;;;3.40;99.90;;;;;;5039504;28;20053;-64
2022/03/04 02:03:47;;;;;;;18.65;11.45;;;3.40;99.90;;;;;;5034926;28;20088;-64
2022/03/04 02:06:13;;;;;;;19.00;11.38;;;3.30;99.90;;;;;;5028451;28;20508;-64
2022/03/04 02:08:38;;;;;;;16.67;11.55;;;3.30;99.90;;;;;;5039444;28;20037;-64
2022/03/04 02:11:04;;;;;;;16.83;11.43;;;3.30;99.90;;;;;;5032302;28;20125;-64
2022/03/04 02:13:30;;;;;;;16.88;11.35;;;3.30;99.90;;;;;;5033079;28;20080;-64
2022/03/04 02:15:55;;;;;;;22.25;12.85;;;3.30;99.90;;;;;;5032974;28;20057;-64
2022/03/04 02:18:21;;;;;;;19.48;11.88;;;3.30;99.90;;;;;;5030508;28;20033;-64
2022/03/04 02:20:49;;;;;;;23.95;12.27;;;3.30;99.90;;;;;;5030826;28;20061;-64
2022/03/04 02:23:16;;;;;;;21.52;11.80;;;3.30;99.90;;;;;;5028719;28;20128;-64
2022/03/04 02:25:52;;;;;;;19.42;11.98;;;3.30;99.90;;;;;;5039573;28;20045;-64
2022/03/04 02:28:19;;;;;;;21.95;12.48;;;3.20;99.90;;;;;;5031094;28;20052;-64
2022/03/04 02:30:45;;;;;;;19.75;13.13;;;3.20;99.90;;;;;;5035548;28;20489;-64
2022/03/04 02:33:11;;;;;;;19.77;12.07;;;3.20;99.90;;;;;;5034079;28;20052;-64
2022/03/04 02:35:37;;;;;;;21.58;12.85;;;3.10;99.90;;;;;;5047659;28;20079;-64
2022/03/04 02:38:04;;;;;;;17.77;12.13;;;3.10;99.90;;;;;;5037459;28;20107;-64
2022/03/04 02:40:29;;;;;;;21.25;12.32;;;3.00;99.90;;;;;;5031811;28;20154;-64
2022/03/04 02:42:55;;;;;;;22.77;13.40;;;3.00;99.90;;;;;;5041517;28;20493;-65
2022/03/04 02:45:21;;;;;;;23.85;12.70;;;3.00;99.90;;;;;;5033831;28;20048;-64
2022/03/04 02:47:46;;;;;;;22.48;13.80;;;3.00;99.90;;;;;;5036493;28;20888;-64
2022/03/04 02:50:12;;;;;;;21.23;12.27;;;3.00;99.90;;;;;;5039549;28;20072;-64
2022/03/04 02:52:38;;;;;;;19.08;12.60;;;2.90;99.90;;;;;;5041941;28;20132;-64
2022/03/04 02:55:05;;;;;;;20.52;12.85;;;2.90;99.90;;;;;;5032178;28;20057;-64
2022/03/04 02:57:31;;;;;;;20.05;13.27;;;3.00;99.90;;;;;;5030081;28;20099;-64
2022/03/04 02:59:56;;;;;;;20.38;12.77;;;2.90;99.90;;;;;;5037067;28;20489;-64
2022/03/04 03:02:22;;;;;;;21.55;11.88;;;2.90;99.90;;;;;;5040524;28;20041;-64
2022/03/04 03:04:47;;;;;;;21.85;12.98;;;3.00;99.90;;;;;;5042833;28;20094;-64
2022/03/04 03:07:13;;;;;;;20.60;12.55;;;2.90;99.90;;;;;;5034108;28;20038;-64
2022/03/04 03:09:38;;;;;;;21.52;12.95;;;2.90;99.90;;;;;;5044361;28;20447;-64
2022/03/04 03:12:04;;;;;;;18.63;12.40;;;2.80;99.90;;;;;;5033289;28;20514;-64
2022/03/04 03:14:30;;;;;;;22.38;13.93;;;2.80;99.90;;;;;;5036745;28;20071;-64
2022/03/04 03:16:55;;;;;;;22.00;13.35;;;2.90;99.90;;;;;;5039654;28;20041;-64
2022/03/04 03:19:21;;;;;;;21.35;13.52;;;2.80;99.90;;;;;;5033876;28;20059;-64
2022/03/04 03:21:47;;;;;;;21.83;13.77;;;2.80;99.90;;;;;;5033179;28;20568;-64
2022/03/04 03:24:12;;;;;;;20.50;13.07;;;2.80;99.90;;;;;;5029235;28;20080;-64
2022/03/04 03:26:38;;;;;;;25.42;14.60;;;2.80;99.90;;;;;;5040425;28;20048;-64
2022/03/04 03:29:03;;;;;;;20.40;14.02;;;2.80;99.90;;;;;;5029084;28;20045;-64
2022/03/04 03:31:29;;;;;;;22.70;13.10;;;2.70;99.90;;;;;;5031445;28;20063;-64
2022/03/04 03:33:54;;;;;;;24.83;13.52;;;2.70;99.90;;;;;;5039821;28;20040;-64
2022/03/04 03:36:21;;;;;;;20.20;13.70;;;2.70;99.90;;;;;;5043645;28;20098;-64
2022/03/04 03:38:47;;;;;;;21.70;13.50;;;2.70;99.90;;;;;;5035470;28;20060;-64
2022/03/04 03:41:12;;;;;;;24.05;14.52;;;2.70;99.90;;;;;;5035850;28;20037;-64
2022/03/04 03:43:39;;;;;;;21.90;14.30;;;2.60;99.90;;;;;;5032588;28;20044;-63
2022/03/04 03:46:04;;;;;;;20.33;12.65;;;2.60;99.90;;;;;;5033287;28;20053;-64
2022/03/04 03:48:30;;;;;;;21.50;13.95;;;2.60;99.90;;;;;;5032821;28;20103;-64
2022/03/04 03:50:55;;;;;;;27.10;14.20;;;2.60;99.90;;;;;;5036861;28;20068;-64
2022/03/04 03:53:21;;;;;;;20.48;13.98;;;2.50;99.90;;;;;;5029895;28;20049;-64
2022/03/04 03:55:47;;;;;;;26.17;14.38;;;2.50;99.90;;;;;;5032918;28;20149;-64
2022/03/04 03:58:12;;;;;;;25.73;14.38;;;2.50;99.90;;;;;;5033963;28;20535;-64
2022/03/04 04:00:38;;;;;;;28.17;15.65;;;2.50;99.90;;;;;;5035794;28;20044;-64
2022/03/04 04:03:04;;;;;;;22.70;14.43;;;2.60;99.90;;;;;;5034134;28;20164;-64
2022/03/04 04:05:29;;;;;;;27.38;14.88;;;2.50;99.90;;;;;;5035665;28;20050;-64
2022/03/04 04:07:55;;;;;;;21.88;14.15;;;2.50;99.90;;;;;;5032493;28;20053;-64
2022/03/04 04:10:20;;;;;;;25.45;15.25;;;2.40;99.90;;;;;;5030424;28;20092;-64
2022/03/04 04:12:46;;;;;;;21.73;13.60;;;2.40;99.90;;;;;;5034959;28;20041;-64
2022/03/04 04:15:12;;;;;;;26.85;15.27;;;2.50;99.90;;;;;;5038724;28;20420;-64
2022/03/04 04:17:37;;;;;;;25.52;15.80;;;2.40;99.90;;;;;;5041412;28;20099;-64
2022/03/04 04:20:03;;;;;;;21.90;13.68;;;2.30;99.90;;;;;;5033363;28;20037;-64
2022/03/04 04:22:29;;;;;;;24.02;14.95;;;2.30;99.90;;;;;;5038768;28;20675;-64
2022/03/04 04:24:55;;;;;;;26.80;14.95;;;2.30;99.90;;;;;;5035947;28;20124;-64
2022/03/04 04:27:20;;;;;;;30.38;15.70;;;2.30;99.90;;;;;;5041863;28;20045;-64
2022/03/04 04:29:46;;;;;;;26.88;15.25;;;2.30;99.90;;;;;;5034284;28;20136;-63
2022/03/04 04:32:12;;;;;;;25.38;14.70;;;2.20;99.90;;;;;;5037141;28;20052;-64
2022/03/04 04:34:37;;;;;;;21.42;14.13;;;2.20;99.90;;;;;;5037708;28;20037;-64
2022/03/04 04:37:03;;;;;;;28.38;15.05;;;2.20;99.90;;;;;;5035574;28;20045;-64
2022/03/04 04:39:29;;;;;;;26.65;15.63;;;2.20;99.90;;;;;;5033545;28;20091;-64
2022/03/04 04:41:54;;;;;;;27.42;15.95;;;2.20;99.90;;;;;;5035998;28;20844;-64
2022/03/04 04:44:20;;;;;;;24.52;15.40;;;2.20;99.90;;;;;;5032854;28;20045;-64
2022/03/04 04:46:45;;;;;;;23.98;15.50;;;2.10;99.90;;;;;;5030943;28;20076;-63
2022/03/04 04:49:11;;;;;;;24.27;15.10;;;2.00;99.90;;;;;;5028290;28;20069;-64
2022/03/04 04:51:36;;;;;;;25.70;15.52;;;2.00;99.90;;;;;;5036287;28;20053;-64
2022/03/04 04:54:02;;;;;;;25.40;15.77;;;2.10;99.90;;;;;;5037788;28;20045;-63
2022/03/04 04:56:28;;;;;;;24.35;15.23;;;2.00;99.90;;;;;;5030078;28;20045;-64
2022/03/04 04:58:54;;;;;;;28.65;15.75;;;1.90;99.90;;;;;;5032742;28;20041;-64
2022/03/04 05:01:20;;;;;;;23.73;14.43;;;1.90;99.90;;;;;;5035843;28;20057;-64
2022/03/04 05:03:45;;;;;;;25.45;16.55;;;1.90;99.90;;;;;;5043532;28;20059;-64
2022/03/04 05:06:11;;;;;;;22.55;14.73;;;2.00;99.90;;;;;;5039430;28;20042;-64
2022/03/04 05:08:37;;;;;;;31.90;18.08;;;1.90;99.90;;;;;;5035611;28;20049;-64
2022/03/04 05:11:02;;;;;;;24.88;15.90;;;1.90;99.90;;;;;;5035543;28;20037;-63
2022/03/04 05:13:29;;;;;;;29.17;16.73;;;1.90;99.90;;;;;;5044560;28;20115;-64
2022/03/04 05:15:55;;;;;;;29.88;15.95;;;1.90;99.90;;;;;;5041618;28;20041;-63
2022/03/04 05:18:20;;;;;;;27.63;15.43;;;1.90;99.90;;;;;;5043441;28;20075;-64
2022/03/04 05:20:46;;;;;;;28.20;18.52;;;1.80;99.90;;;;;;5046932;28;20186;-64
2022/03/04 05:23:58;;;;;;;30.17;16.50;;;1.80;99.90;;;;;;5039943;28;20059;-64
2022/03/04 05:25:57;;;;;;;25.98;17.13;;;1.80;99.90;;;;;;5032540;28;20136;-64
2022/03/04 05:28:23;;;;;;;27.23;15.70;;;1.80;99.90;;;;;;5031176;28;20226;-64
2022/03/04 05:30:48;;;;;;;29.23;17.38;;;1.80;99.90;;;;;;5031788;28;20486;-63
2022/03/04 05:33:14;;;;;;;28.27;15.88;;;1.80;99.90;;;;;;5041764;28;20048;-63
2022/03/04 05:35:39;;;;;;;27.25;16.23;;;1.80;99.90;;;;;;5039876;28;21827;-64
2022/03/04 05:38:05;;;;;;;27.05;16.10;;;1.80;99.90;;;;;;5038053;28;20049;-64
2022/03/04 05:40:32;;;;;;;27.70;17.35;;;1.80;99.90;;;;;;5032643;28;20396;-64
2022/03/04 05:42:57;;;;;;;25.75;14.73;;;1.80;99.90;;;;;;5041456;28;20057;-64
2022/03/04 05:45:23;;;;;;;23.73;15.45;;;1.90;99.90;;;;;;5037512;28;20053;-63
2022/03/04 05:47:49;;;;;;;28.23;17.25;;;1.80;99.90;;;;;;5039045;28;20041;-64
2022/03/04 05:50:15;;;;;;;26.80;16.85;;;1.90;99.90;;;;;;5043680;28;20045;-64
2022/03/04 05:52:41;;;;;;;27.02;16.35;;;1.80;99.90;;;;;;5038470;28;20064;-64
2022/03/04 05:55:07;;;;;;;27.67;16.33;;;1.80;99.90;;;;;;5033410;28;20473;-64
2022/03/04 05:57:32;;;;;;;27.98;16.40;;;1.80;99.90;;;;;;5029213;28;20068;-63
2022/03/04 05:59:59;;;;;;;30.02;17.80;;;1.70;99.90;;;;;;5037391;28;20045;-63
2022/03/04 06:02:26;;;;;;;28.92;17.92;;;1.70;99.90;;;;;;5035818;28;20083;-63
2022/03/04 06:04:52;;;;;;;30.38;18.85;;;1.60;99.90;;;;;;5033883;28;20037;-63
2022/03/04 06:07:17;;;;;;;26.05;16.05;;;1.70;99.90;;;;;;5036407;28;20048;-63
2022/03/04 06:09:43;;;;;;;35.90;18.35;;;1.60;99.90;;;;;;5032961;28;20080;-63
2022/03/04 06:12:08;;;;;;;40.15;23.42;;;1.60;99.90;;;;;;5036402;28;20049;-64
2022/03/04 06:14:35;;;;;;;41.75;23.33;;;1.60;99.90;;;;;;5041194;28;20063;-63
2022/03/04 06:17:00;;;;;;;26.88;16.30;;;1.50;99.90;;;;;;5038364;28;20053;-63
2022/03/04 06:19:26;;;;;;;28.92;19.90;;;1.50;99.90;;;;;;5029370;28;20125;-63
2022/03/04 06:21:52;;;;;;;31.08;19.05;;;1.50;99.90;;;;;;5038880;28;20053;-63
2022/03/04 06:24:17;;;;;;;34.75;21.95;;;1.50;99.90;;;;;;5029738;28;20056;-63
2022/03/04 06:26:43;;;;;;;31.33;19.80;;;1.40;99.90;;;;;;5035010;28;20124;-64
2022/03/04 06:29:08;;;;;;;29.25;19.88;;;1.40;99.90;;;;;;5040123;28;20069;-64
2022/03/04 06:31:34;;;;;;;31.13;18.88;;;1.40;99.90;;;;;;5030788;28;20074;-64
2022/03/04 06:33:59;;;;;;;27.38;17.60;;;1.40;99.90;;;;;;5037699;28;20737;-64
2022/03/04 06:36:25;;;;;;;29.13;19.15;;;1.40;99.90;;;;;;5039430;28;20509;-64
2022/03/04 06:38:50;;;;;;;38.17;23.20;;;1.30;99.90;;;;;;5032479;28;20431;-64
2022/03/04 06:41:16;;;;;;;28.20;17.88;;;1.20;99.90;;;;;;5029753;28;20135;-64
2022/03/04 06:43:43;;;;;;;34.33;20.17;;;1.40;99.90;;;;;;5032859;28;20078;-63
2022/03/04 06:46:08;;;;;;;32.08;20.83;;;1.20;99.90;;;;;;5038218;28;20060;-64
2022/03/04 06:48:34;;;;;;;31.92;19.83;;;1.30;99.90;;;;;;5033496;28;20440;-63
2022/03/04 06:51:00;;;;;;;26.83;17.98;;;1.20;99.90;;;;;;5036421;28;20049;-63
2022/03/04 06:53:26;;;;;;;29.55;19.27;;;1.30;99.90;;;;;;5039426;28;20052;-64
2022/03/04 06:55:52;;;;;;;30.58;19.88;;;1.20;99.90;;;;;;5047734;28;20095;-64
2022/03/04 06:58:18;;;;;;;31.90;19.25;;;1.10;99.90;;;;;;5032885;28;20045;-64
2022/03/04 07:00:44;;;;;;;30.17;18.40;;;1.10;99.90;;;;;;5034173;28;20436;-64
2022/03/04 07:03:10;;;;;;;30.45;19.85;;;1.30;99.90;;;;;;5042281;28;20064;-64
2022/03/04 07:05:37;;;;;;;32.40;20.15;;;1.30;99.90;;;;;;5030172;28;20465;-64
2022/03/04 07:08:03;;;;;;;31.58;19.48;;;1.30;99.90;;;;;;5045411;28;20106;-64
2022/03/04 07:10:29;;;;;;;32.03;20.48;;;1.30;99.90;;;;;;5038708;28;20131;-64
2022/03/04 07:12:54;;;;;;;36.22;22.85;;;1.40;99.90;;;;;;5034267;28;20037;-64
2022/03/04 07:15:20;;;;;;;37.88;23.30;;;1.20;99.90;;;;;;5044344;28;20045;-64
2022/03/04 07:17:46;;;;;;;37.92;23.75;;;1.30;99.90;;;;;;5033865;28;20398;-64
2022/03/04 07:20:12;;;;;;;35.50;20.77;;;1.30;99.90;;;;;;5036327;28;20045;-64
2022/03/04 07:22:39;;;;;;;36.22;21.92;;;1.30;99.90;;;;;;5044541;28;20053;-64
2022/03/04 07:25:06;;;;;;;35.17;21.50;;;1.30;99.90;;;;;;5038759;28;20397;-64
2022/03/04 07:27:36;;;;;;;31.85;21.05;;;1.30;99.90;;;;;;5044987;28;20040;-64
2022/03/04 07:30:08;;;;;;;38.40;21.98;;;1.30;99.90;;;;;;5042786;28;20055;-64
2022/03/04 07:32:34;;;;;;;40.67;23.45;;;1.30;99.90;;;;;;5037770;28;20037;-64
2022/03/04 07:34:59;;;;;;;33.63;20.88;;;1.40;99.90;;;;;;5043345;28;20033;-64
2022/03/04 07:37:25;;;;;;;32.42;20.25;;;1.50;99.90;;;;;;5035061;28;20516;-64
2022/03/04 07:39:51;;;;;;;40.35;23.75;;;1.40;99.90;;;;;;5034238;28;20037;-64
2022/03/04 07:42:16;;;;;;;35.10;21.83;;;1.40;99.90;;;;;;5028724;28;20524;-64
2022/03/04 07:44:43;;;;;;;35.78;22.27;;;1.60;99.90;;;;;;5040617;28;20056;-64
2022/03/04 07:47:08;;;;;;;35.03;21.80;;;1.60;99.90;;;;;;5029399;28;20528;-64
2022/03/04 07:49:34;;;;;;;34.60;21.77;;;1.50;99.90;;;;;;5030004;28;20065;-64
2022/03/04 07:52:00;;;;;;;38.75;23.73;;;1.60;99.90;;;;;;5037736;28;20058;-64
2022/03/04 07:54:25;;;;;;;40.65;23.75;;;1.60;99.90;;;;;;5032233;28;20134;-64
2022/03/04 07:56:52;;;;;;;39.88;22.85;;;1.60;99.90;;;;;;5041322;28;20037;-64
2022/03/04 07:59:18;;;;;;;37.63;21.95;;;1.60;99.90;;;;;;5041710;28;20052;-64
2022/03/04 08:01:44;;;;;;;37.70;23.58;;;1.60;99.90;;;;;;5032961;28;20115;-64
2022/03/04 08:04:11;;;;;;;35.78;21.92;;;1.70;99.90;;;;;;5032192;28;20140;-64
2022/03/04 08:06:38;;;;;;;37.90;23.95;;;1.70;99.90;;;;;;5045200;28;20086;-65
2022/03/04 08:09:04;;;;;;;41.70;23.50;;;1.70;99.90;;;;;;5032220;28;20041;-65
2022/03/04 08:11:29;;;;;;;39.38;22.92;;;1.80;99.90;;;;;;5037591;28;20123;-65
2022/03/04 08:13:55;;;;;;;40.45;23.75;;;1.80;99.90;;;;;;5034385;28;20049;-65
2022/03/04 08:16:20;;;;;;;49.65;28.83;;;1.80;99.90;;;;;;5034929;28;20038;-65
2022/03/04 08:18:47;;;;;;;45.08;28.17;;;1.90;99.90;;;;;;5032982;28;20354;-65
2022/03/04 08:21:12;;;;;;;45.03;30.48;;;1.90;99.90;;;;;;5043972;28;20052;-65
2022/03/04 08:23:38;;;;;;;45.53;30.00;;;1.90;99.90;;;;;;5035687;28;20062;-65
2022/03/04 08:26:04;;;;;;;44.50;30.17;;;1.90;99.90;;;;;;5029245;28;20045;-65
2022/03/04 08:28:33;;;;;;;38.65;26.27;;;2.00;99.90;;;;;;5031779;28;20057;-65
2022/03/04 08:30:59;;;;;;;44.85;26.33;;;2.00;99.90;;;;;;5033013;28;20384;-65
2022/03/04 08:33:25;;;;;;;36.33;24.02;;;2.00;99.90;;;;;;5042275;28;20045;-65
2022/03/04 08:35:50;;;;;;;40.95;25.13;;;2.00;99.90;;;;;;5042158;28;20030;-65
2022/03/04 08:38:16;;;;;;;40.22;24.58;;;2.00;99.90;;;;;;5041499;28;20441;-65
2022/03/04 08:40:42;;;;;;;48.58;23.67;;;2.00;99.90;;;;;;5036179;28;20188;-65
2022/03/04 08:43:07;;;;;;;39.28;23.98;;;2.00;99.90;;;;;;5035153;28;20493;-64
2022/03/04 08:45:34;;;;;;;35.53;22.80;;;2.10;99.90;;;;;;5044705;28;20034;-63
2022/03/04 08:47:59;;;;;;;38.95;22.23;;;2.10;99.90;;;;;;5037457;28;20180;-65
2022/03/04 08:50:25;;;;;;;36.53;22.90;;;2.10;99.90;;;;;;5041016;28;20582;-65
2022/03/04 08:52:51;;;;;;;38.60;25.20;;;2.10;99.90;;;;;;5048743;28;20048;-65
2022/03/04 08:55:17;;;;;;;40.58;23.65;;;2.00;99.90;;;;;;5048067;28;20040;-65
2022/03/04 08:57:44;;;;;;;38.20;24.08;;;2.20;99.90;;;;;;5031644;28;20056;-65
2022/03/04 09:00:11;;;;;;;49.30;30.73;;;2.20;99.90;;;;;;5035056;28;20519;-65
2022/03/04 09:02:36;;;;;;;60.13;34.10;;;2.20;99.90;;;;;;5031409;28;20048;-65
2022/03/04 09:05:02;;;;;;;67.05;36.92;;;2.20;99.90;;;;;;5043391;28;20278;-65
2022/03/04 09:07:28;;;;;;;73.30;38.65;;;2.30;99.90;;;;;;5048373;28;20043;-65
2022/03/04 09:09:54;;;;;;;62.05;32.53;;;2.40;99.90;;;;;;5037253;28;20156;-65
2022/03/04 09:12:19;;;;;;;71.65;37.55;;;2.40;99.90;;;;;;5035463;28;20128;-65
2022/03/04 09:14:46;;;;;;;43.33;27.45;;;2.40;99.90;;;;;;5032798;28;20440;-65
2022/03/04 09:17:11;;;;;;;41.97;26.52;;;2.50;99.90;;;;;;5041825;28;20152;-65
2022/03/04 09:19:37;;;;;;;39.30;25.23;;;2.50;99.90;;;;;;5037557;28;20500;-65
2022/03/04 09:22:03;;;;;;;40.13;24.55;;;2.30;99.90;;;;;;5043031;28;20128;-65
2022/03/04 09:24:29;;;;;;;39.13;26.73;;;2.30;99.90;;;;;;5041744;28;20551;-65
2022/03/04 09:26:55;;;;;;;37.80;25.13;;;2.30;99.90;;;;;;5031955;28;20670;-65
2022/03/04 09:29:21;;;;;;;36.88;24.40;;;2.50;99.90;;;;;;5032541;28;20049;-65
2022/03/04 09:31:47;;;;;;;38.42;23.17;;;2.60;99.90;;;;;;5035935;28;20049;-65
2022/03/04 09:34:13;;;;;;;44.03;25.33;;;2.70;99.90;;;;;;5035901;28;20102;-65
2022/03/04 09:36:38;;;;;;;44.10;27.63;;;2.70;99.90;;;;;;5042265;28;20047;-65
2022/03/04 09:39:04;;;;;;;42.67;24.90;;;2.70;99.90;;;;;;5034243;28;20041;-65
2022/03/04 09:41:30;;;;;;;41.88;24.83;;;2.80;99.90;;;;;;5034329;28;20103;-65
2022/03/04 09:43:57;;;;;;;36.42;23.83;;;3.00;99.90;;;;;;5036847;28;20045;-65
2022/03/04 09:46:23;;;;;;;37.72;23.02;;;3.00;99.90;;;;;;5033921;28;20075;-65
2022/03/04 09:48:50;;;;;;;34.60;22.80;;;3.10;99.90;;;;;;5032832;28;20041;-64
2022/03/04 09:51:16;;;;;;;36.90;24.48;;;3.20;99.90;;;;;;5031831;28;20413;-65
2022/03/04 09:53:42;;;;;;;35.63;24.85;;;3.10;99.90;;;;;;5040231;28;20049;-65
2022/03/04 09:56:07;;;;;;;41.88;25.67;;;3.20;99.90;;;;;;5037105;28;20041;-65
2022/03/04 09:58:33;;;;;;;39.08;24.80;;;3.10;99.90;;;;;;5029644;28;20436;-65
2022/03/04 10:00:58;;;;;;;55.30;38.75;;;3.10;99.90;;;;;;5028819;28;20527;-65
2022/03/04 10:03:30;;;;;;;43.03;27.88;;;3.00;99.90;;;;;;5032238;28;20103;-65
2022/03/04 10:05:57;;;;;;;48.85;33.38;;;3.10;99.90;;;;;;5032936;28;20097;-65
2022/03/04 10:08:23;;;;;;;36.97;24.55;;;3.50;99.90;;;;;;5041142;28;20382;-65
2022/03/04 10:10:50;;;;;;;38.70;26.10;;;4.10;99.90;;;;;;5027918;28;20045;-65
2022/03/04 10:13:16;;;;;;;37.10;26.42;;;4.60;99.90;;;;;;5035986;28;20053;-65
2022/03/04 10:15:56;;;;;;;43.05;29.17;;;4.90;99.90;;;;;;5035689;28;20045;-65
2022/03/04 10:18:26;;;;;;;33.00;23.42;;;5.40;99.90;;;;;;5029595;28;20037;-65
2022/03/04 10:20:52;;;;;;;33.15;22.70;;;5.90;99.90;;;;;;5037265;28;20045;-64
2022/03/04 10:23:25;;;;;;;32.50;22.40;;;6.30;99.90;;;;;;5038824;28;20052;-65
2022/03/04 10:25:53;;;;;;;35.63;24.48;;;6.40;99.90;;;;;;5029441;28;20443;-65
2022/03/04 10:28:23;;;;;;;29.40;20.50;;;6.50;99.90;;;;;;5030668;28;20045;-65
2022/03/04 10:30:50;;;;;;;34.95;22.08;;;6.70;99.90;;;;;;5032469;28;20099;-65
2022/03/04 10:33:19;;;;;;;31.73;21.48;;;6.50;99.90;;;;;;5035356;28;20495;-65
2022/03/04 10:35:46;;;;;;;30.95;20.55;;;6.60;99.90;;;;;;5038862;28;20489;-64
2022/03/04 10:38:20;;;;;;;27.80;20.55;;;6.70;99.90;;;;;;5033536;28;20050;-63
2022/03/04 10:40:46;;;;;;;31.65;22.60;;;6.80;99.90;;;;;;5041450;28;20432;-64
2022/03/04 10:43:12;;;;;;;29.98;22.70;;;6.80;99.90;;;;;;5034329;28;20056;-64
2022/03/04 10:45:42;;;;;;;28.65;20.75;;;6.80;99.90;;;;;;5041470;28;20494;-64
2022/03/04 10:48:14;;;;;;;26.73;19.88;;;6.70;99.90;;;;;;5028690;28;20072;-64
2022/03/04 10:50:57;;;;;;;29.92;19.67;;;6.90;99.90;;;;;;5032427;28;20112;-64
2022/03/04 10:53:26;;;;;;;34.72;21.30;;;7.00;99.90;;;;;;5032517;28;20053;-64
2022/03/04 10:55:56;;;;;;;29.67;20.27;;;7.00;99.90;;;;;;5038787;28;20048;-64
2022/03/04 10:58:30;;;;;;;26.90;19.83;;;7.10;99.90;;;;;;5028071;28;20052;-64
2022/03/04 11:01:09;;;;;;;29.20;21.10;;;7.30;99.90;;;;;;5035732;28;20497;-64
2022/03/04 11:03:37;;;;;;;31.83;18.83;;;7.20;99.90;;;;;;5030664;28;20033;-64
2022/03/04 11:06:05;;;;;;;27.73;20.23;;;7.30;99.90;;;;;;5040103;28;20073;-64
2022/03/04 11:08:30;;;;;;;26.63;20.00;;;7.40;99.90;;;;;;5028894;28;20075;-64
2022/03/04 11:10:58;;;;;;;28.48;20.20;;;7.50;99.90;;;;;;5043687;28;20045;-64
2022/03/04 11:13:24;;;;;;;31.55;21.83;;;7.70;99.90;;;;;;5044264;28;20242;-65
2022/03/04 11:15:52;;;;;;;30.30;20.67;;;7.80;99.90;;;;;;5028478;28;20060;-65
2022/03/04 11:18:22;;;;;;;26.17;18.13;;;8.00;99.90;;;;;;5035016;28;20493;-64
2022/03/04 11:20:52;;;;;;;28.13;19.85;;;8.00;99.90;;;;;;5041055;28;20059;-63
2022/03/04 11:23:23;;;;;;;20.48;15.88;;;8.40;99.90;;;;;;5040405;28;20071;-64
2022/03/04 11:26:00;;;;;;;20.75;13.32;;;8.40;99.90;;;;;;5030133;28;20046;-64
2022/03/04 11:28:35;;;;;;;27.60;15.48;;;8.90;99.90;;;;;;5039220;28;20041;-64
2022/03/04 11:31:06;;;;;;;21.95;15.48;;;8.90;99.90;;;;;;5036824;28;20041;-64
2022/03/04 11:33:37;;;;;;;27.35;16.75;;;9.20;99.90;;;;;;5033465;28;20045;-64
2022/03/04 11:36:05;;;;;;;23.83;16.27;;;9.20;99.90;;;;;;5039010;28;20044;-63
2022/03/04 11:38:49;;;;;;;24.20;16.55;;;9.40;99.90;;;;;;5045668;28;20135;-65
2022/03/04 11:41:25;;;;;;;;;;;9.50;99.90;;;;;;5048411;28;20490;-65
2022/03/04 11:43:57;;;;;;;24.73;15.88;;;10.00;99.90;;;;;;5040353;28;19925;-65
2022/03/04 11:46:25;;;;;;;19.35;13.88;;;9.90;99.90;;;;;;5031201;28;20436;-65
2022/03/04 11:49:26;;;;;;;19.23;13.85;;;10.20;99.90;;;;;;5048648;28;20548;-65
2022/03/04 11:52:10;;;;;;;16.60;12.52;;;10.20;99.90;;;;;;5029413;28;20061;-65
2022/03/04 11:54:41;;;;;;;19.88;13.30;;;10.60;99.90;;;;;;5046584;28;20076;-65
2022/03/04 11:57:21;;;;;;;27.33;14.52;;;10.80;99.90;;;;;;5038654;28;20054;-65
2022/03/04 11:59:51;;;;;;;18.95;14.00;;;11.30;99.90;;;;;;5040046;28;20091;-65
2022/03/04 12:02:40;;;;;;;15.85;11.25;;;11.10;99.90;;;;;;5033843;28;20052;-65
2022/03/04 12:05:15;;;;;;;16.67;13.23;;;11.60;99.90;;;;;;5043312;28;20037;-66
2022/03/04 12:07:43;;;;;;;13.15;10.52;;;11.70;99.90;;;;;;5049872;28;20041;-65
2022/03/04 12:10:14;;;;;;;18.60;13.45;;;12.40;99.90;;;;;;5044022;28;20045;-66
2022/03/04 12:12:58;;;;;;;18.10;12.68;;;12.40;99.90;;;;;;5034900;28;20041;-65
2022/03/04 12:15:23;;;;;;;14.10;11.18;;;12.00;99.90;;;;;;5042635;28;20599;-65
2022/03/04 12:18:02;;;;;;;14.82;11.40;;;12.60;99.90;;;;;;5036410;28;20061;-64
2022/03/04 12:20:40;;;;;;;12.10;10.75;;;12.40;99.90;;;;;;5041581;28;20047;-64
2022/03/04 12:23:09;;;;;;;14.52;11.43;;;12.30;99.90;;;;;;5034620;28;20052;-64
2022/03/04 12:28:24;;;;;;;;;;;12.10;99.90;;;;;;5040443;28;20140;-65
2022/03/04 12:31:01;;;;;;;20.27;10.73;;;12.30;99.90;;;;;;5034098;28;20540;-64
2022/03/04 12:33:28;;;;;;;14.68;11.20;;;12.30;99.90;;;;;;5031011;28;20045;-65
2022/03/04 12:35:57;;;;;;;15.27;11.93;;;12.00;99.90;;;;;;5037491;28;20088;-65
2022/03/04 12:38:27;;;;;;;18.92;11.73;;;12.50;99.90;;;;;;5041729;28;20126;-65